createdAt,value
2023-05-14T00:01:29.063Z,64.26855
2023-05-14T00:06:29.108Z,64.62305
2023-05-14T00:11:29.139Z,64.11328
2023-05-14T00:16:29.177Z,64.40918
2023-05-14T00:21:38.975Z,64.4082
2023-05-14T00:26:29.031Z,64.25488
2023-05-14T00:31:29.165Z,64.57129
2023-05-14T00:36:29.054Z,64.44043
2023-05-14T00:41:28.929Z,64.62402
2023-05-14T00:46:29.407Z,64.66699
2023-05-14T00:51:38.387Z,64.92969
2023-05-14T00:56:29.206Z,64.66797
2023-05-14T01:01:28.928Z,64.45117
2023-05-14T01:06:33.251Z,64.95508
2023-05-14T01:11:33.217Z,64.67578
2023-05-14T01:16:32.756Z,64.78223
2023-05-14T01:21:46.466Z,64.71777
2023-05-14T01:26:31.310Z,64.86914
2023-05-14T01:31:31.379Z,64.9209
2023-05-14T01:36:29.361Z,64.98242
2023-05-14T01:41:29.545Z,65.12207
2023-05-14T01:46:29.029Z,64.99316
2023-05-14T01:51:29.315Z,64.97949
2023-05-14T01:56:29.278Z,64.88477
2023-05-14T02:01:29.177Z,65.09277
2023-05-14T02:06:28.971Z,65.17676
2023-05-14T02:11:29.186Z,65.04199
2023-05-14T02:16:29.118Z,65.37109
2023-05-14T02:21:29.198Z,65.20117
2023-05-14T02:26:29.060Z,65.22363
2023-05-14T02:31:28.933Z,65.1084
2023-05-14T02:36:29.092Z,65.25293
2023-05-14T02:41:29.156Z,65.2041
2023-05-14T02:46:32.322Z,65.50977
2023-05-14T02:51:31.835Z,65.35938
2023-05-14T02:56:28.925Z,65.68848
2023-05-14T03:01:29.157Z,65.56738
2023-05-14T03:06:29.022Z,65.62598
2023-05-14T03:11:29.061Z,65.24121
2023-05-14T03:16:29.139Z,65.3457
2023-05-14T03:21:31.868Z,65.52832
2023-05-14T03:26:29.011Z,65.43066
2023-05-14T03:31:29.067Z,65.49512
2023-05-14T03:36:28.835Z,65.84375
2023-05-14T03:41:31.778Z,65.81348
2023-05-14T03:46:29.082Z,65.85547
2023-05-14T03:51:28.965Z,65.70898
2023-05-14T03:56:28.938Z,65.8877
2023-05-14T04:01:28.867Z,65.56055
2023-05-14T04:06:28.988Z,65.46875
2023-05-14T04:11:28.910Z,65.62695
2023-05-14T04:16:30.846Z,65.50293
2023-05-14T04:21:28.884Z,65.71094
2023-05-14T04:26:29.111Z,65.70215
2023-05-14T04:31:29.114Z,65.68652
2023-05-14T04:36:29.008Z,65.52344
2023-05-14T04:41:28.837Z,65.78906
2023-05-14T04:46:29.025Z,65.54297
2023-05-14T04:51:28.809Z,65.58398
2023-05-14T04:56:28.951Z,65.57129
2023-05-14T05:01:28.915Z,65.49512
2023-05-14T05:06:28.947Z,65.62793
2023-05-14T05:11:29.334Z,65.51074
2023-05-14T05:16:28.850Z,65.39453
2023-05-14T05:21:29.046Z,65.5127
2023-05-14T05:26:29.175Z,65.94824
2023-05-14T05:31:28.828Z,65.47363
2023-05-14T05:36:29.115Z,65.70215
2023-05-14T05:41:30.050Z,65.47266
2023-05-14T05:46:28.931Z,65.42871
2023-05-14T05:51:28.929Z,65.48242
2023-05-14T05:56:28.896Z,65.60938
2023-05-14T06:01:30.586Z,65.82129
2023-05-14T06:06:33.098Z,65.20605
2023-05-14T06:11:28.984Z,65.28418
2023-05-14T06:16:28.968Z,64.7168
2023-05-14T06:21:28.949Z,64.37305
2023-05-14T06:26:28.944Z,64.36426
2023-05-14T06:31:28.956Z,63.62695
2023-05-14T06:36:28.975Z,63.65234
2023-05-14T06:41:29.686Z,63.24609
2023-05-14T06:46:28.858Z,63.19043
2023-05-14T06:51:29.498Z,63.50781
2023-05-14T06:56:28.898Z,63.61133
2023-05-14T07:01:28.999Z,63.67676
2023-05-14T07:06:28.850Z,63.52246
2023-05-14T07:11:28.799Z,63.69531
2023-05-14T07:16:28.980Z,64.06055
2023-05-14T07:21:29.008Z,63.57813
2023-05-14T07:26:28.958Z,63.20605
2023-05-14T07:31:28.874Z,63.37305
2023-05-14T07:36:28.866Z,62.96582
2023-05-14T07:41:28.832Z,62.55176
2023-05-14T07:46:31.738Z,62.61328
2023-05-14T07:51:28.904Z,62.36914
2023-05-14T07:56:29.019Z,61.86621
2023-05-14T08:01:30.113Z,61.02148
2023-05-14T08:06:29.596Z,60.80664
2023-05-14T08:11:30.249Z,59.91992
2023-05-14T08:16:29.379Z,58.92773
2023-05-14T08:21:28.699Z,58.16797
2023-05-14T08:26:29.034Z,57.71875
2023-05-14T08:31:28.913Z,57.00488
2023-05-14T08:36:28.827Z,56.41016
2023-05-14T08:41:29.367Z,55.99023
2023-05-14T08:46:30.192Z,55.76172
2023-05-14T08:51:28.790Z,55.22363
2023-05-14T08:56:29.417Z,54.92871
2023-05-14T09:01:29.876Z,54.84473
2023-05-14T09:06:29.648Z,54.08496
2023-05-14T09:11:29.901Z,53.58984
2023-05-14T09:16:29.592Z,53.49609
2023-05-14T09:21:30.535Z,53.5957
2023-05-14T09:26:31.504Z,53.1123
2023-05-14T09:31:28.848Z,52.29102
2023-05-14T09:36:29.500Z,52.25684
2023-05-14T09:41:28.843Z,51.85449
2023-05-14T09:46:31.370Z,51.24609
2023-05-14T09:51:28.723Z,50.87695
2023-05-14T09:56:29.004Z,50.58594
2023-05-14T10:01:29.707Z,50.25977
2023-05-14T10:06:29.722Z,50.25586
2023-05-14T10:11:29.564Z,49.54883
2023-05-14T10:16:32.202Z,49.61719
2023-05-14T10:21:29.552Z,48.89355
2023-05-14T10:26:28.966Z,48.40039
2023-05-14T10:31:40.615Z,48.15625
2023-05-14T10:36:29.379Z,48.0791
2023-05-14T10:41:29.168Z,47.59961
2023-05-14T10:46:29.521Z,48.5459
2023-05-14T10:51:29.013Z,48.15039
2023-05-14T10:56:29.034Z,47.01465
2023-05-14T11:01:28.868Z,48.12402
2023-05-14T11:06:31.381Z,47.35449
2023-05-14T11:11:28.659Z,46.88086
2023-05-14T11:16:30.769Z,47.2373
2023-05-14T11:21:28.758Z,47.02539
2023-05-14T11:26:28.920Z,47.43848
2023-05-14T11:31:29.509Z,48.65625
2023-05-14T11:36:28.888Z,47.31348
2023-05-14T11:41:30.920Z,47.73047
2023-05-14T11:46:30.966Z,49.40039
2023-05-14T11:51:28.963Z,48.78125
2023-05-14T11:56:29.069Z,48.27539
2023-05-14T12:01:30.162Z,46.46484
2023-05-14T12:06:34.430Z,47.39355
2023-05-14T12:11:28.884Z,47.83984
2023-05-14T12:16:34.872Z,46.49121
2023-05-14T12:21:31.388Z,45.45605
2023-05-14T12:26:30.093Z,45.3252
2023-05-14T12:31:36.264Z,46.54883
2023-05-14T12:36:29.333Z,47.33203
2023-05-14T12:41:28.732Z,48.02148
2023-05-14T12:46:29.675Z,48.32031
2023-05-14T12:51:29.044Z,48.29785
2023-05-14T12:56:30.905Z,47.39648
2023-05-14T13:01:32.095Z,47.26465
2023-05-14T13:06:29.131Z,46.85352
2023-05-14T13:11:30.380Z,47.59961
2023-05-14T13:16:28.825Z,47.28711
2023-05-14T13:21:28.870Z,46.74316
2023-05-14T13:26:30.494Z,46.82129
2023-05-14T13:31:28.942Z,46.25098
2023-05-14T13:36:28.828Z,46.6123
2023-05-14T13:41:30.016Z,46.73438
2023-05-14T13:46:28.865Z,46.54492
2023-05-14T13:51:29.247Z,46.50586
2023-05-14T13:56:28.733Z,46.23535
2023-05-14T14:01:30.797Z,45.98926
2023-05-14T14:06:32.374Z,46.14063
2023-05-14T14:11:28.789Z,46.81543
2023-05-14T14:16:28.755Z,46.34766
2023-05-14T14:21:28.836Z,47.02637
2023-05-14T14:26:29.229Z,46.83594
2023-05-14T14:31:31.971Z,45.02637
2023-05-14T14:36:28.864Z,45.80371
2023-05-14T14:41:28.824Z,45.22852
2023-05-14T14:46:28.807Z,45.82324
2023-05-14T14:51:30.153Z,45.33301
2023-05-14T14:56:28.843Z,46.50488
2023-05-14T15:01:28.973Z,46.91016
2023-05-14T15:06:28.772Z,47.85156
2023-05-14T15:11:31.420Z,48.16699
2023-05-14T15:16:28.870Z,48.42969
2023-05-14T15:21:29.005Z,48.9541
2023-05-14T15:26:28.865Z,49.17578
2023-05-14T15:31:28.987Z,49.27441
2023-05-14T15:36:28.912Z,49.29492
2023-05-14T15:41:29.617Z,49.56152
2023-05-14T15:46:28.794Z,49.63672
2023-05-14T15:51:29.869Z,50.02344
2023-05-14T15:56:28.837Z,50.46582
2023-05-14T16:01:28.743Z,50.38574
2023-05-14T16:06:29.574Z,50.75
2023-05-14T16:11:29.096Z,49.64453
2023-05-14T16:16:28.974Z,50.96289
2023-05-14T16:21:34.260Z,50.31738
2023-05-14T16:26:28.844Z,50.27832
2023-05-14T16:31:31.352Z,50.76367
2023-05-14T16:36:28.960Z,50.47266
2023-05-14T16:41:28.841Z,50.48047
2023-05-14T16:46:29.501Z,50.90918
2023-05-14T16:51:31.728Z,51.56934
2023-05-14T16:56:36.428Z,51.44336
2023-05-14T17:01:29.036Z,50.82324
2023-05-14T17:06:29.153Z,51.33984
2023-05-14T17:11:28.860Z,51.77832
2023-05-14T17:16:28.915Z,51.64258
2023-05-14T17:21:28.832Z,52.17188
2023-05-14T17:26:28.872Z,52.44336
2023-05-14T17:31:28.758Z,52.80078
2023-05-14T17:36:31.617Z,53.22656
2023-05-14T17:41:28.990Z,53.30957
2023-05-14T17:46:28.922Z,52.98633
2023-05-14T17:51:28.744Z,53.38379
2023-05-14T17:56:28.776Z,53.30664
2023-05-14T18:01:28.986Z,53.97852
2023-05-14T18:06:28.865Z,54.03809
2023-05-14T18:11:32.726Z,53.84375
2023-05-14T18:16:29.061Z,54.53809
2023-05-14T18:21:28.825Z,53.98047
2023-05-14T18:26:28.861Z,54.08301
2023-05-14T18:31:29.095Z,54.57324
2023-05-14T18:36:28.992Z,54.44922
2023-05-14T18:41:28.897Z,54.68652
2023-05-14T18:46:29.125Z,54.19434
2023-05-14T18:51:29.396Z,54.32031
2023-05-14T18:56:28.906Z,54.40723
2023-05-14T19:01:29.145Z,54.76367
2023-05-14T19:06:28.884Z,55.07422
2023-05-14T19:11:28.841Z,54.68555
2023-05-14T19:16:29.070Z,54.93066
2023-05-14T19:21:29.036Z,55.31445
2023-05-14T19:26:28.977Z,55.52148
2023-05-14T19:31:28.882Z,55.75195
2023-05-14T19:36:28.818Z,56.18164
2023-05-14T19:41:28.985Z,56.25293
2023-05-14T19:46:29.138Z,56.42285
2023-05-14T19:51:29.068Z,56.94531
2023-05-14T19:56:28.892Z,56.93457
2023-05-14T20:01:29.425Z,57.0459
2023-05-14T20:06:28.960Z,57.47461
2023-05-14T20:11:31.821Z,57.8916
2023-05-14T20:16:28.757Z,58.2998
2023-05-14T20:21:28.919Z,58.19922
2023-05-14T20:26:28.953Z,58.73047
2023-05-14T20:31:29.043Z,58.6748
2023-05-14T20:36:29.910Z,59.17383
2023-05-14T20:41:28.886Z,58.94336
2023-05-14T20:46:29.852Z,59.28027
2023-05-14T20:51:28.811Z,59.58203
2023-05-14T20:56:28.820Z,59.30664
2023-05-14T21:01:29.240Z,59.7832
2023-05-14T21:06:28.851Z,59.625
2023-05-14T21:11:28.848Z,59.94629
2023-05-14T21:16:28.959Z,60.125
2023-05-14T21:21:28.633Z,60.17383
2023-05-14T21:26:30.338Z,60.38574
2023-05-14T21:31:28.988Z,60.4541
2023-05-14T21:36:28.844Z,60.39941
2023-05-14T21:41:28.744Z,60.90625
2023-05-14T21:46:29.108Z,61.12109
2023-05-14T21:51:28.834Z,60.97949
2023-05-14T21:56:28.865Z,60.72266
2023-05-14T22:01:28.779Z,60.95117
2023-05-14T22:06:29.200Z,60.83594
2023-05-14T22:11:28.810Z,61.4375
2023-05-14T22:16:28.889Z,61.28809
2023-05-14T22:21:31.604Z,61.03809
2023-05-14T22:26:29.070Z,61.33008
2023-05-14T22:31:28.838Z,61.71777
2023-05-14T22:36:29.227Z,62.07715
2023-05-14T22:41:28.957Z,62.00977
2023-05-14T22:46:28.911Z,62.11328
2023-05-14T22:51:28.841Z,61.66113
2023-05-14T22:56:28.897Z,62.00488
2023-05-14T23:01:28.935Z,62.07129
2023-05-14T23:06:29.106Z,62.03516
2023-05-14T23:11:29.300Z,62.00977
2023-05-14T23:16:28.834Z,62.46875
2023-05-14T23:21:28.891Z,62.59277
2023-05-14T23:26:28.905Z,62.48438
2023-05-14T23:31:28.924Z,62.6084
2023-05-14T23:36:31.425Z,62.94336
2023-05-14T23:41:28.914Z,62.86621
2023-05-14T23:46:29.015Z,63.09766
2023-05-14T23:51:29.651Z,62.55469
2023-05-14T23:56:29.080Z,62.91895
